Whitehouse, Kentucky
Current Conditions -  °F | °C
As of 5:35 PM on Monday 20 Oct 2014 (Local Time) from KSJS Reporting Station
Overcast Overcast  
Wind Chill: 58°   Ceiling: 11000
Heat Index: 58°   Visibility: 10mi
Dew Point: 49°   Wind: 5mph
Humidity: 71%   Direction: 230°SW
Pressure: 29.95"   Gusts: NA
Location:  37.7517°N, 82.9074°W
Report Text: KSJS 202135Z AUTO 23004KT 10SM OVC110 15/10 A2995 RMK AO2 T01460095
Loading
Personal Weather Stations






























Interactive Weather Map
Tropical Storm Tracking
New forecast layout! Learn more

10-Day Weather Forecast

Advertisements
Track Severe Weather on mobile